sensor_id;sensor_type;location;lat;lon;timestamp;pressure;altitude;pressure_sealevel;temperature;humidity
69570;BME280;56781;42.292;23.146;2023-02-02T00:01:49;95758.97;;;-1.12;97.68
69570;BME280;56781;42.292;23.146;2023-02-02T00:04:34;95761.97;;;-1.26;98.16
69570;BME280;56781;42.292;23.146;2023-02-02T00:07:02;95771.25;;;-1.24;99.57
69570;BME280;56781;42.292;23.146;2023-02-02T00:09:31;95781.50;;;-1.22;99.94
69570;BME280;56781;42.292;23.146;2023-02-02T00:11:59;95792.31;;;-1.12;100.00
69570;BME280;56781;42.292;23.146;2023-02-02T00:14:28;95799.69;;;-1.21;100.00
69570;BME280;56781;42.292;23.146;2023-02-02T00:16:56;95770.88;;;-1.46;100.00
69570;BME280;56781;42.292;23.146;2023-02-02T00:19:26;95763.28;;;-1.54;100.00
69570;BME280;56781;42.292;23.146;2023-02-02T00:21:54;95765.03;;;-1.29;100.00
69570;BME280;56781;42.292;23.146;2023-02-02T00:24:22;95784.94;;;-1.03;100.00
69570;BME280;56781;42.292;23.146;2023-02-02T00:26:51;95767.81;;;-1.24;100.00
69570;BME280;56781;42.292;23.146;2023-02-02T00:29:21;95777.59;;;-1.13;100.00
69570;BME280;56781;42.292;23.146;2023-02-02T00:31:49;95801.09;;;-1.00;100.00
69570;BME280;56781;42.292;23.146;2023-02-02T00:34:18;95754.25;;;-1.40;100.00
69570;BME280;56781;42.292;23.146;2023-02-02T00:36:45;95766.13;;;-1.37;100.00
69570;BME280;56781;42.292;23.146;2023-02-02T00:39:15;95754.38;;;-1.16;99.75
69570;BME280;56781;42.292;23.146;2023-02-02T00:41:45;95761.53;;;-1.05;98.28
69570;BME280;56781;42.292;23.146;2023-02-02T00:44:12;95757.97;;;-1.10;98.97
69570;BME280;56781;42.292;23.146;2023-02-02T00:46:58;95768.22;;;-0.91;97.61
69570;BME280;56781;42.292;23.146;2023-02-02T00:49:25;95771.28;;;-0.94;98.47
69570;BME280;56781;42.292;23.146;2023-02-02T00:51:52;95792.75;;;-0.78;98.65
69570;BME280;56781;42.292;23.146;2023-02-02T00:54:19;95783.97;;;-0.91;98.59
69570;BME280;56781;42.292;23.146;2023-02-02T00:56:47;95756.56;;;-0.95;99.38
69570;BME280;56781;42.292;23.146;2023-02-02T00:59:14;95750.47;;;-0.95;97.75
69570;BME280;56781;42.292;23.146;2023-02-02T01:01:41;95788.47;;;-0.61;98.07
69570;BME280;56781;42.292;23.146;2023-02-02T01:04:08;95796.59;;;-0.62;98.06
69570;BME280;56781;42.292;23.146;2023-02-02T01:06:35;95771.72;;;-0.78;97.09
69570;BME280;56781;42.292;23.146;2023-02-02T01:09:03;95767.28;;;-0.66;96.97
69570;BME280;56781;42.292;23.146;2023-02-02T01:11:30;95793.53;;;-0.48;96.89
69570;BME280;56781;42.292;23.146;2023-02-02T01:13:57;95773.50;;;-0.60;97.21
69570;BME280;56781;42.292;23.146;2023-02-02T01:16:24;95766.72;;;-0.68;97.84
69570;BME280;56781;42.292;23.146;2023-02-02T01:18:52;95776.59;;;-0.52;97.33
69570;BME280;56781;42.292;23.146;2023-02-02T01:21:19;95794.69;;;-0.43;97.24
69570;BME280;56781;42.292;23.146;2023-02-02T01:23:47;95775.72;;;-0.46;97.20
69570;BME280;56781;42.292;23.146;2023-02-02T01:26:15;95760.13;;;-0.59;97.50
69570;BME280;56781;42.292;23.146;2023-02-02T01:28:43;95782.00;;;-0.47;96.74
69570;BME280;56781;42.292;23.146;2023-02-02T01:31:14;95761.72;;;-0.58;96.89
69570;BME280;56781;42.292;23.146;2023-02-02T01:33:42;95751.38;;;-0.71;97.33
69570;BME280;56781;42.292;23.146;2023-02-02T01:36:13;95730.44;;;-0.90;97.49
69570;BME280;56781;42.292;23.146;2023-02-02T01:38:40;95761.09;;;-0.72;98.05
69570;BME280;56781;42.292;23.146;2023-02-02T01:41:12;95766.06;;;-0.63;97.30
69570;BME280;56781;42.292;23.146;2023-02-02T01:51:43;95764.38;;;-0.76;97.96
69570;BME280;56781;42.292;23.146;2023-02-02T01:54:16;95734.84;;;-0.90;97.98
69570;BME280;56781;42.292;23.146;2023-02-02T01:56:51;95729.84;;;-0.92;97.52
69570;BME280;56781;42.292;23.146;2023-02-02T01:59:19;95749.03;;;-0.61;96.78
69570;BME280;56781;42.292;23.146;2023-02-02T02:01:47;95731.22;;;-0.89;97.28
69570;BME280;56781;42.292;23.146;2023-02-02T02:04:16;95716.63;;;-1.03;97.22
69570;BME280;56781;42.292;23.146;2023-02-02T02:06:43;95727.97;;;-1.03;96.82
69570;BME280;56781;42.292;23.146;2023-02-02T02:09:11;95738.16;;;-0.95;96.11
69570;BME280;56781;42.292;23.146;2023-02-02T02:11:38;95745.03;;;-1.12;96.38
69570;BME280;56781;42.292;23.146;2023-02-02T02:14:08;95743.88;;;-1.16;96.61
69570;BME280;56781;42.292;23.146;2023-02-02T02:19:52;95754.59;;;-1.18;96.46
69570;BME280;56781;42.292;23.146;2023-02-02T02:23:07;95752.63;;;-1.22;96.76
69570;BME280;56781;42.292;23.146;2023-02-02T02:26:07;95716.75;;;-1.47;95.79
69570;BME280;56781;42.292;23.146;2023-02-02T02:35:28;95754.88;;;-1.44;97.36
69570;BME280;56781;42.292;23.146;2023-02-02T02:40:35;95739.56;;;-1.66;99.67
69570;BME280;56781;42.292;23.146;2023-02-02T02:43:08;95706.41;;;-2.04;100.00
69570;BME280;56781;42.292;23.146;2023-02-02T02:45:39;95733.31;;;-2.65;99.02
69570;BME280;56781;42.292;23.146;2023-02-02T02:48:07;95738.44;;;-2.77;100.00
69570;BME280;56781;42.292;23.146;2023-02-02T02:50:37;95724.47;;;-2.71;100.00
69570;BME280;56781;42.292;23.146;2023-02-02T02:53:07;95750.72;;;-2.46;100.00
69570;BME280;56781;42.292;23.146;2023-02-02T02:55:49;95734.19;;;-2.78;100.00
69570;BME280;56781;42.292;23.146;2023-02-02T03:01:28;95729.38;;;-3.26;100.00
69570;BME280;56781;42.292;23.146;2023-02-02T03:04:07;95722.13;;;-3.17;100.00
69570;BME280;56781;42.292;23.146;2023-02-02T03:06:52;95731.28;;;-3.01;100.00
69570;BME280;56781;42.292;23.146;2023-02-02T03:09:25;95744.38;;;-3.01;100.00
69570;BME280;56781;42.292;23.146;2023-02-02T03:11:58;95743.38;;;-3.00;100.00
69570;BME280;56781;42.292;23.146;2023-02-02T03:14:26;95730.47;;;-2.95;100.00
69570;BME280;56781;42.292;23.146;2023-02-02T03:16:53;95744.28;;;-2.81;100.00
69570;BME280;56781;42.292;23.146;2023-02-02T03:19:20;95742.72;;;-2.89;100.00
69570;BME280;56781;42.292;23.146;2023-02-02T03:21:47;95741.56;;;-3.00;100.00
69570;BME280;56781;42.292;23.146;2023-02-02T03:24:15;95734.69;;;-3.39;100.00
69570;BME280;56781;42.292;23.146;2023-02-02T03:26:42;95746.88;;;-3.85;100.00
69570;BME280;56781;42.292;23.146;2023-02-02T03:29:09;95773.41;;;-3.81;100.00
69570;BME280;56781;42.292;23.146;2023-02-02T03:31:36;95730.78;;;-3.88;100.00
69570;BME280;56781;42.292;23.146;2023-02-02T03:34:04;95758.66;;;-3.49;100.00
69570;BME280;56781;42.292;23.146;2023-02-02T03:36:31;95758.09;;;-3.58;100.00
69570;BME280;56781;42.292;23.146;2023-02-02T03:38:58;95739.25;;;-4.26;100.00
69570;BME280;56781;42.292;23.146;2023-02-02T03:41:25;95734.84;;;-4.26;100.00
69570;BME280;56781;42.292;23.146;2023-02-02T03:43:52;95721.16;;;-4.21;100.00
69570;BME280;56781;42.292;23.146;2023-02-02T03:46:19;95709.50;;;-4.32;100.00
69570;BME280;56781;42.292;23.146;2023-02-02T03:48:47;95719.97;;;-4.52;100.00
69570;BME280;56781;42.292;23.146;2023-02-02T03:51:14;95701.66;;;-4.78;100.00
69570;BME280;56781;42.292;23.146;2023-02-02T03:53:42;95712.50;;;-4.68;100.00
69570;BME280;56781;42.292;23.146;2023-02-02T03:56:18;95717.97;;;-4.50;100.00
69570;BME280;56781;42.292;23.146;2023-02-02T03:58:45;95721.56;;;-4.44;100.00
69570;BME280;56781;42.292;23.146;2023-02-02T04:01:13;95718.75;;;-4.29;100.00
69570;BME280;56781;42.292;23.146;2023-02-02T04:03:41;95725.56;;;-4.08;100.00
69570;BME280;56781;42.292;23.146;2023-02-02T04:06:08;95734.81;;;-3.99;100.00
69570;BME280;56781;42.292;23.146;2023-02-02T04:08:35;95721.34;;;-4.29;100.00
69570;BME280;56781;42.292;23.146;2023-02-02T04:11:02;95729.19;;;-4.29;100.00
69570;BME280;56781;42.292;23.146;2023-02-02T04:13:30;95735.84;;;-4.33;100.00
69570;BME280;56781;42.292;23.146;2023-02-02T04:16:00;95768.59;;;-4.11;100.00
69570;BME280;56781;42.292;23.146;2023-02-02T04:18:28;95727.78;;;-4.18;100.00
69570;BME280;56781;42.292;23.146;2023-02-02T04:20:57;95737.44;;;-4.06;100.00
69570;BME280;56781;42.292;23.146;2023-02-02T04:23:24;95783.88;;;-3.94;100.00
69570;BME280;56781;42.292;23.146;2023-02-02T04:25:52;95751.72;;;-4.15;100.00
69570;BME280;56781;42.292;23.146;2023-02-02T04:28:20;95785.09;;;-3.77;100.00
69570;BME280;56781;42.292;23.146;2023-02-02T04:30:49;95746.88;;;-3.85;100.00
69570;BME280;56781;42.292;23.146;2023-02-02T04:33:17;95748.88;;;-3.87;100.00
69570;BME280;56781;42.292;23.146;2023-02-02T04:35:44;95751.66;;;-3.75;100.00
69570;BME280;56781;42.292;23.146;2023-02-02T04:38:11;95747.06;;;-3.99;100.00
69570;BME280;56781;42.292;23.146;2023-02-02T04:40:44;95725.97;;;-4.51;100.00
69570;BME280;56781;42.292;23.146;2023-02-02T04:43:12;95756.13;;;-4.55;100.00
69570;BME280;56781;42.292;23.146;2023-02-02T04:45:39;95754.91;;;-4.59;100.00
69570;BME280;56781;42.292;23.146;2023-02-02T04:48:08;95759.72;;;-4.56;100.00
69570;BME280;56781;42.292;23.146;2023-02-02T04:50:35;95774.63;;;-4.43;100.00
69570;BME280;56781;42.292;23.146;2023-02-02T04:53:03;95767.38;;;-4.55;100.00
69570;BME280;56781;42.292;23.146;2023-02-02T04:55:30;95767.78;;;-4.51;100.00
69570;BME280;56781;42.292;23.146;2023-02-02T04:58:01;95776.84;;;-4.27;100.00
69570;BME280;56781;42.292;23.146;2023-02-02T05:00:28;95774.22;;;-4.07;100.00
69570;BME280;56781;42.292;23.146;2023-02-02T05:02:55;95778.25;;;-4.05;100.00
69570;BME280;56781;42.292;23.146;2023-02-02T05:05:23;95767.78;;;-3.91;100.00
69570;BME280;56781;42.292;23.146;2023-02-02T05:07:50;95775.41;;;-3.70;100.00
69570;BME280;56781;42.292;23.146;2023-02-02T05:10:17;95764.94;;;-3.70;100.00
69570;BME280;56781;42.292;23.146;2023-02-02T05:12:44;95814.84;;;-3.58;100.00
69570;BME280;56781;42.292;23.146;2023-02-02T05:15:11;95787.50;;;-3.82;100.00
69570;BME280;56781;42.292;23.146;2023-02-02T05:17:39;95794.94;;;-3.72;100.00
69570;BME280;56781;42.292;23.146;2023-02-02T05:20:06;95827.28;;;-3.53;100.00
69570;BME280;56781;42.292;23.146;2023-02-02T05:22:33;95770.59;;;-3.86;100.00
69570;BME280;56781;42.292;23.146;2023-02-02T05:25:01;95794.91;;;-3.52;100.00
69570;BME280;56781;42.292;23.146;2023-02-02T05:27:28;95790.66;;;-3.53;100.00
69570;BME280;56781;42.292;23.146;2023-02-02T05:29:55;95828.28;;;-3.28;100.00
69570;BME280;56781;42.292;23.146;2023-02-02T05:32:23;95803.72;;;-3.40;100.00
69570;BME280;56781;42.292;23.146;2023-02-02T05:34:50;95815.63;;;-3.44;100.00
69570;BME280;56781;42.292;23.146;2023-02-02T05:37:17;95800.16;;;-3.66;100.00
69570;BME280;56781;42.292;23.146;2023-02-02T05:39:44;95824.69;;;-3.67;100.00
69570;BME280;56781;42.292;23.146;2023-02-02T05:42:12;95830.13;;;-3.75;100.00
69570;BME280;56781;42.292;23.146;2023-02-02T05:44:39;95816.47;;;-3.90;100.00
69570;BME280;56781;42.292;23.146;2023-02-02T05:47:06;95823.91;;;-3.74;100.00
69570;BME280;56781;42.292;23.146;2023-02-02T05:49:33;95801.78;;;-3.71;100.00
69570;BME280;56781;42.292;23.146;2023-02-02T05:52:00;95823.88;;;-3.54;100.00
69570;BME280;56781;42.292;23.146;2023-02-02T05:54:28;95798.56;;;-3.73;100.00
69570;BME280;56781;42.292;23.146;2023-02-02T05:56:55;95834.16;;;-3.52;100.00
69570;BME280;56781;42.292;23.146;2023-02-02T05:59:22;95785.25;;;-3.72;100.00
69570;BME280;56781;42.292;23.146;2023-02-02T06:01:50;95803.97;;;-3.75;100.00
69570;BME280;56781;42.292;23.146;2023-02-02T06:04:17;95782.47;;;-3.84;100.00
69570;BME280;56781;42.292;23.146;2023-02-02T06:06:44;95776.03;;;-3.94;100.00
69570;BME280;56781;42.292;23.146;2023-02-02T06:09:13;95789.53;;;-3.97;100.00
69570;BME280;56781;42.292;23.146;2023-02-02T06:11:42;95791.94;;;-4.03;100.00
69570;BME280;56781;42.292;23.146;2023-02-02T06:14:10;95828.13;;;-3.66;100.00
69570;BME280;56781;42.292;23.146;2023-02-02T06:16:37;95795.94;;;-3.80;100.00
69570;BME280;56781;42.292;23.146;2023-02-02T06:19:04;95830.34;;;-3.50;100.00
69570;BME280;56781;42.292;23.146;2023-02-02T06:21:32;95825.91;;;-3.76;100.00
69570;BME280;56781;42.292;23.146;2023-02-02T06:23:59;95816.47;;;-3.97;100.00
69570;BME280;56781;42.292;23.146;2023-02-02T06:26:27;95815.88;;;-3.79;100.00
69570;BME280;56781;42.292;23.146;2023-02-02T06:28:55;95857.09;;;-3.61;100.00
69570;BME280;56781;42.292;23.146;2023-02-02T06:31:22;95817.25;;;-3.83;100.00
69570;BME280;56781;42.292;23.146;2023-02-02T06:33:55;95856.72;;;-3.58;100.00
69570;BME280;56781;42.292;23.146;2023-02-02T06:36:24;95841.59;;;-3.49;100.00
69570;BME280;56781;42.292;23.146;2023-02-02T06:38:53;95834.94;;;-3.59;100.00
69570;BME280;56781;42.292;23.146;2023-02-02T06:41:20;95848.22;;;-3.53;100.00
69570;BME280;56781;42.292;23.146;2023-02-02T06:43:48;95836.34;;;-3.43;100.00
69570;BME280;56781;42.292;23.146;2023-02-02T06:46:16;95854.19;;;-3.06;100.00
69570;BME280;56781;42.292;23.146;2023-02-02T06:48:43;95840.75;;;-2.65;100.00
69570;BME280;56781;42.292;23.146;2023-02-02T06:51:11;95866.72;;;-2.18;100.00
69570;BME280;56781;42.292;23.146;2023-02-02T06:53:38;95843.03;;;-2.05;99.37
69570;BME280;56781;42.292;23.146;2023-02-02T06:56:08;95837.16;;;-2.01;98.23
69570;BME280;56781;42.292;23.146;2023-02-02T06:58:37;95810.22;;;-2.14;98.56
69570;BME280;56781;42.292;23.146;2023-02-02T07:01:07;95845.75;;;-1.68;98.15
69570;BME280;56781;42.292;23.146;2023-02-02T07:03:34;95832.06;;;-1.70;97.10
69570;BME280;56781;42.292;23.146;2023-02-02T07:06:15;95826.75;;;-1.89;97.73
69570;BME280;56781;42.292;23.146;2023-02-02T07:08:43;95845.03;;;-1.75;98.26
69570;BME280;56781;42.292;23.146;2023-02-02T07:11:15;95826.44;;;-1.74;98.46
69570;BME280;56781;42.292;23.146;2023-02-02T07:13:44;95870.19;;;-1.43;97.79
69570;BME280;56781;42.292;23.146;2023-02-02T07:16:11;95830.81;;;-1.43;98.10
69570;BME280;56781;42.292;23.146;2023-02-02T07:18:40;95848.22;;;-1.05;96.00
69570;BME280;56781;42.292;23.146;2023-02-02T07:21:15;95866.88;;;-0.58;95.41
69570;BME280;56781;42.292;23.146;2023-02-02T07:23:43;95832.25;;;-0.55;94.13
69570;BME280;56781;42.292;23.146;2023-02-02T07:26:11;95868.59;;;-0.03;92.92
69570;BME280;56781;42.292;23.146;2023-02-02T07:28:39;95820.31;;;-0.09;91.02
69570;BME280;56781;42.292;23.146;2023-02-02T07:31:23;95837.41;;;0.01;89.96
69570;BME280;56781;42.292;23.146;2023-02-02T07:33:52;95866.84;;;0.21;90.58
69570;BME280;56781;42.292;23.146;2023-02-02T07:36:21;95823.22;;;0.13;89.81
69570;BME280;56781;42.292;23.146;2023-02-02T07:38:51;95832.16;;;0.24;89.34
69570;BME280;56781;42.292;23.146;2023-02-02T07:41:21;95849.38;;;0.38;88.71
69570;BME280;56781;42.292;23.146;2023-02-02T07:43:49;95858.66;;;0.41;88.01
69570;BME280;56781;42.292;23.146;2023-02-02T07:46:17;95839.31;;;0.47;87.50
69570;BME280;56781;42.292;23.146;2023-02-02T07:48:44;95872.75;;;0.70;87.00
69570;BME280;56781;42.292;23.146;2023-02-02T07:51:14;95849.16;;;0.87;86.00
69570;BME280;56781;42.292;23.146;2023-02-02T07:53:46;95846.94;;;1.07;84.19
69570;BME280;56781;42.292;23.146;2023-02-02T07:56:16;95839.38;;;1.11;84.70
69570;BME280;56781;42.292;23.146;2023-02-02T07:58:44;95835.72;;;1.00;84.49
69570;BME280;56781;42.292;23.146;2023-02-02T08:01:13;95832.75;;;1.49;82.19
69570;BME280;56781;42.292;23.146;2023-02-02T08:03:42;95830.59;;;1.74;80.74
69570;BME280;56781;42.292;23.146;2023-02-02T08:06:13;95854.56;;;1.73;81.54
69570;BME280;56781;42.292;23.146;2023-02-02T08:08:42;95852.22;;;1.07;84.18
69570;BME280;56781;42.292;23.146;2023-02-02T08:11:10;95818.00;;;0.72;86.58
69570;BME280;56781;42.292;23.146;2023-02-02T08:13:39;95820.53;;;0.55;86.77
69570;BME280;56781;42.292;23.146;2023-02-02T08:16:07;95791.19;;;0.28;88.69
69570;BME280;56781;42.292;23.146;2023-02-02T08:18:35;95834.66;;;1.25;87.22
69570;BME280;56781;42.292;23.146;2023-02-02T08:21:04;95819.69;;;1.71;85.17
69570;BME280;56781;42.292;23.146;2023-02-02T08:23:32;95824.38;;;2.43;83.40
69570;BME280;56781;42.292;23.146;2023-02-02T08:26:14;95821.53;;;3.98;78.44
69570;BME280;56781;42.292;23.146;2023-02-02T08:28:45;95818.53;;;5.34;72.27
69570;BME280;56781;42.292;23.146;2023-02-02T08:31:20;95796.69;;;4.69;72.00
69570;BME280;56781;42.292;23.146;2023-02-02T08:33:47;95788.78;;;6.36;68.10
69570;BME280;56781;42.292;23.146;2023-02-02T08:36:17;95801.31;;;7.46;62.17
69570;BME280;56781;42.292;23.146;2023-02-02T08:38:45;95780.44;;;7.74;60.94
69570;BME280;56781;42.292;23.146;2023-02-02T08:41:14;95792.63;;;7.85;57.62
69570;BME280;56781;42.292;23.146;2023-02-02T08:43:42;95789.53;;;8.47;58.12
69570;BME280;56781;42.292;23.146;2023-02-02T08:46:11;95764.72;;;8.12;56.34
69570;BME280;56781;42.292;23.146;2023-02-02T08:48:40;95773.66;;;8.31;55.07
69570;BME280;56781;42.292;23.146;2023-02-02T08:51:09;95779.09;;;8.16;56.07
69570;BME280;56781;42.292;23.146;2023-02-02T08:53:37;95788.25;;;7.55;58.79
69570;BME280;56781;42.292;23.146;2023-02-02T08:56:09;95767.41;;;6.97;59.61
69570;BME280;56781;42.292;23.146;2023-02-02T08:58:37;95757.38;;;6.43;60.41
69570;BME280;56781;42.292;23.146;2023-02-02T09:01:13;95745.66;;;5.93;62.69
69570;BME280;56781;42.292;23.146;2023-02-02T09:03:41;95766.44;;;6.62;60.01
69570;BME280;56781;42.292;23.146;2023-02-02T09:06:10;95755.50;;;6.69;61.25
69570;BME280;56781;42.292;23.146;2023-02-02T09:08:38;95757.06;;;6.91;60.15
69570;BME280;56781;42.292;23.146;2023-02-02T09:11:13;95764.06;;;6.25;58.99
69570;BME280;56781;42.292;23.146;2023-02-02T09:13:42;95743.50;;;5.74;64.67
69570;BME280;56781;42.292;23.146;2023-02-02T09:16:15;95743.19;;;5.55;63.66
69570;BME280;56781;42.292;23.146;2023-02-02T09:18:43;95754.88;;;5.54;65.00
69570;BME280;56781;42.292;23.146;2023-02-02T09:21:12;95766.88;;;5.62;66.49
69570;BME280;56781;42.292;23.146;2023-02-02T09:23:40;95746.44;;;5.73;66.26
69570;BME280;56781;42.292;23.146;2023-02-02T09:28:40;95744.19;;;5.29;64.01
69570;BME280;56781;42.292;23.146;2023-02-02T09:31:07;95740.50;;;5.30;65.46
69570;BME280;56781;42.292;23.146;2023-02-02T09:33:35;95723.78;;;5.29;64.53
69570;BME280;56781;42.292;23.146;2023-02-02T09:36:15;95753.09;;;5.75;62.31
69570;BME280;56781;42.292;23.146;2023-02-02T09:38:43;95713.50;;;5.69;61.60
69570;BME280;56781;42.292;23.146;2023-02-02T09:41:21;95712.72;;;5.78;65.62
69570;BME280;56781;42.292;23.146;2023-02-02T09:44:14;95732.34;;;5.83;61.88
69570;BME280;56781;42.292;23.146;2023-02-02T09:47:16;95730.25;;;5.85;64.90
69570;BME280;56781;42.292;23.146;2023-02-02T09:52:25;95690.94;;;6.17;62.63
69570;BME280;56781;42.292;23.146;2023-02-02T09:55:26;95696.00;;;6.04;65.22
69570;BME280;56781;42.292;23.146;2023-02-02T09:57:59;95671.81;;;6.10;61.56
69570;BME280;56781;42.292;23.146;2023-02-02T10:00:33;95677.66;;;5.92;61.48
69570;BME280;56781;42.292;23.146;2023-02-02T10:03:11;95653.25;;;6.00;63.19
69570;BME280;56781;42.292;23.146;2023-02-02T10:05:49;95651.88;;;6.18;63.17
69570;BME280;56781;42.292;23.146;2023-02-02T10:08:49;95652.41;;;6.20;62.23
69570;BME280;56781;42.292;23.146;2023-02-02T10:11:33;95658.16;;;6.58;62.10
69570;BME280;56781;42.292;23.146;2023-02-02T10:14:14;95657.44;;;7.07;61.80
69570;BME280;56781;42.292;23.146;2023-02-02T10:16:45;95647.31;;;7.14;59.88
69570;BME280;56781;42.292;23.146;2023-02-02T10:19:15;95638.31;;;7.49;58.85
69570;BME280;56781;42.292;23.146;2023-02-02T10:22:06;95659.59;;;7.89;56.03
69570;BME280;56781;42.292;23.146;2023-02-02T10:24:37;95669.53;;;8.12;54.00
69570;BME280;56781;42.292;23.146;2023-02-02T10:27:11;95634.78;;;7.93;51.95
69570;BME280;56781;42.292;23.146;2023-02-02T10:29:59;95644.19;;;8.15;52.78
69570;BME280;56781;42.292;23.146;2023-02-02T10:32:55;95627.31;;;8.49;53.78
69570;BME280;56781;42.292;23.146;2023-02-02T10:35:38;95628.31;;;8.58;52.12
69570;BME280;56781;42.292;23.146;2023-02-02T10:38:18;95607.97;;;8.62;50.11
69570;BME280;56781;42.292;23.146;2023-02-02T10:41:04;95633.22;;;8.94;49.26
69570;BME280;56781;42.292;23.146;2023-02-02T10:43:51;95610.84;;;8.90;47.56
69570;BME280;56781;42.292;23.146;2023-02-02T10:46:26;95583.31;;;8.70;47.70
69570;BME280;56781;42.292;23.146;2023-02-02T10:52:14;95612.38;;;9.33;47.25
69570;BME280;56781;42.292;23.146;2023-02-02T11:00:37;95565.53;;;9.03;46.30
69570;BME280;56781;42.292;23.146;2023-02-02T11:03:08;95606.16;;;9.19;46.40
69570;BME280;56781;42.292;23.146;2023-02-02T11:05:36;95587.28;;;8.73;47.68
69570;BME280;56781;42.292;23.146;2023-02-02T11:08:34;95575.53;;;8.93;46.29
69570;BME280;56781;42.292;23.146;2023-02-02T11:11:20;95550.09;;;9.00;46.49
69570;BME280;56781;42.292;23.146;2023-02-02T11:14:00;95583.41;;;9.60;45.93
69570;BME280;56781;42.292;23.146;2023-02-02T11:16:30;95543.66;;;9.39;44.55
69570;BME280;56781;42.292;23.146;2023-02-02T11:21:49;95554.31;;;9.58;44.30
69570;BME280;56781;42.292;23.146;2023-02-02T11:24:28;95549.66;;;9.64;44.20
69570;BME280;56781;42.292;23.146;2023-02-02T11:27:00;95559.56;;;9.44;46.14
69570;BME280;56781;42.292;23.146;2023-02-02T11:29:28;95541.34;;;8.95;45.72
69570;BME280;56781;42.292;23.146;2023-02-02T11:31:57;95526.84;;;8.82;46.02
69570;BME280;56781;42.292;23.146;2023-02-02T11:34:26;95518.03;;;9.19;44.45
69570;BME280;56781;42.292;23.146;2023-02-02T11:37:02;95525.47;;;8.84;45.82
69570;BME280;56781;42.292;23.146;2023-02-02T11:39:36;95530.47;;;8.72;45.77
69570;BME280;56781;42.292;23.146;2023-02-02T11:42:06;95533.22;;;9.05;46.41
69570;BME280;56781;42.292;23.146;2023-02-02T11:44:34;95517.25;;;9.19;45.75
69570;BME280;56781;42.292;23.146;2023-02-02T11:47:04;95513.00;;;8.99;45.61
69570;BME280;56781;42.292;23.146;2023-02-02T11:49:37;95517.25;;;9.19;46.27
69570;BME280;56781;42.292;23.146;2023-02-02T11:52:16;95517.03;;;9.15;44.89
69570;BME280;56781;42.292;23.146;2023-02-02T11:54:49;95521.66;;;9.09;44.43
69570;BME280;56781;42.292;23.146;2023-02-02T11:57:21;95520.34;;;8.69;45.06
69570;BME280;56781;42.292;23.146;2023-02-02T11:59:51;95541.09;;;8.53;44.92
69570;BME280;56781;42.292;23.146;2023-02-02T12:02:32;95515.50;;;8.71;45.38
69570;BME280;56781;42.292;23.146;2023-02-02T12:07:36;95490.34;;;8.96;45.26
69570;BME280;56781;42.292;23.146;2023-02-02T12:18:32;95494.38;;;10.06;42.55
69570;BME280;56781;42.292;23.146;2023-02-02T12:21:20;95476.50;;;9.73;42.72
69570;BME280;56781;42.292;23.146;2023-02-02T12:24:08;95454.44;;;9.82;43.01
69570;BME280;56781;42.292;23.146;2023-02-02T12:26:51;95477.63;;;10.00;41.90
69570;BME280;56781;42.292;23.146;2023-02-02T12:29:43;95471.47;;;9.58;43.16
69570;BME280;56781;42.292;23.146;2023-02-02T12:38:35;95439.69;;;10.12;42.71
69570;BME280;56781;42.292;23.146;2023-02-02T12:44:37;95430.00;;;9.74;42.71
69570;BME280;56781;42.292;23.146;2023-02-02T12:50:33;95427.78;;;9.63;43.12
69570;BME280;56781;42.292;23.146;2023-02-02T12:53:23;95415.34;;;9.58;42.35
69570;BME280;56781;42.292;23.146;2023-02-02T12:58:40;95428.78;;;9.53;41.63
69570;BME280;56781;42.292;23.146;2023-02-02T13:01:31;95407.94;;;9.22;41.91
69570;BME280;56781;42.292;23.146;2023-02-02T13:04:27;95411.31;;;9.28;42.23
69570;BME280;56781;42.292;23.146;2023-02-02T13:07:14;95400.44;;;8.92;44.27
69570;BME280;56781;42.292;23.146;2023-02-02T13:12:34;95374.53;;;8.40;43.48
69570;BME280;56781;42.292;23.146;2023-02-02T13:15:07;95407.91;;;8.57;44.18
69570;BME280;56781;42.292;23.146;2023-02-02T13:17:47;95425.28;;;8.73;43.76
69570;BME280;56781;42.292;23.146;2023-02-02T13:20:26;95405.81;;;8.73;43.50
69570;BME280;56781;42.292;23.146;2023-02-02T13:22:59;95411.88;;;8.78;44.87
69570;BME280;56781;42.292;23.146;2023-02-02T13:25:33;95413.53;;;8.74;44.05
69570;BME280;56781;42.292;23.146;2023-02-02T13:28:03;95413.53;;;8.74;44.89
69570;BME280;56781;42.292;23.146;2023-02-02T13:30:39;95385.84;;;8.51;44.40
69570;BME280;56781;42.292;23.146;2023-02-02T13:33:14;95416.56;;;8.68;43.55
69570;BME280;56781;42.292;23.146;2023-02-02T13:35:56;95410.00;;;8.41;43.68
69570;BME280;56781;42.292;23.146;2023-02-02T13:38:27;95392.91;;;8.23;43.42
69570;BME280;56781;42.292;23.146;2023-02-02T13:41:07;95377.47;;;8.20;43.86
69570;BME280;56781;42.292;23.146;2023-02-02T13:46:41;95393.53;;;8.15;44.67
69570;BME280;56781;42.292;23.146;2023-02-02T13:49:20;95385.31;;;8.11;44.74
69570;BME280;56781;42.292;23.146;2023-02-02T14:00:19;95405.47;;;7.98;44.62
69570;BME280;56781;42.292;23.146;2023-02-02T14:02:51;95419.59;;;7.99;45.43
69570;BME280;56781;42.292;23.146;2023-02-02T14:08:02;95463.38;;;7.69;46.01
69570;BME280;56781;42.292;23.146;2023-02-02T14:10:38;95454.88;;;6.74;53.80
69570;BME280;56781;42.292;23.146;2023-02-02T14:16:00;95522.56;;;5.47;66.86
69570;BME280;56781;42.292;23.146;2023-02-02T14:24:44;95534.63;;;4.35;81.20
69570;BME280;56781;42.292;23.146;2023-02-02T14:29:58;95547.88;;;4.35;82.96
69570;BME280;56781;42.292;23.146;2023-02-02T14:37:55;95520.28;;;4.26;84.88
69570;BME280;56781;42.292;23.146;2023-02-02T14:43:26;95547.78;;;4.20;85.66
69570;BME280;56781;42.292;23.146;2023-02-02T14:48:42;95534.53;;;4.15;84.86
69570;BME280;56781;42.292;23.146;2023-02-02T14:51:15;95513.66;;;4.24;84.00
69570;BME280;56781;42.292;23.146;2023-02-02T14:54:04;95516.88;;;4.41;84.04
69570;BME280;56781;42.292;23.146;2023-02-02T14:56:44;95521.63;;;4.34;84.27
69570;BME280;56781;42.292;23.146;2023-02-02T14:59:21;95527.69;;;4.24;86.72
69570;BME280;56781;42.292;23.146;2023-02-02T15:02:11;95520.75;;;4.13;85.93